sensor_id;sensor_type;location;lat;lon;timestamp;pressure;altitude;pressure_sealevel;temperature;humidity
23574;BME280;11965;53.640;10.050;2024-01-15T00:02:22;99100.72;;;0.79;100.00
23574;BME280;11965;53.640;10.050;2024-01-15T00:04:48;99093.03;;;0.82;100.00
23574;BME280;11965;53.640;10.050;2024-01-15T00:07:15;99074.13;;;0.81;100.00
23574;BME280;11965;53.640;10.050;2024-01-15T00:09:42;99085.50;;;0.93;100.00
23574;BME280;11965;53.640;10.050;2024-01-15T00:12:11;99067.25;;;0.93;100.00
23574;BME280;11965;53.640;10.050;2024-01-15T00:14:38;99074.91;;;0.98;100.00
23574;BME280;11965;53.640;10.050;2024-01-15T00:17:05;99070.47;;;0.97;100.00
23574;BME280;11965;53.640;10.050;2024-01-15T00:19:32;99071.34;;;0.97;100.00
23574;BME280;11965;53.640;10.050;2024-01-15T00:21:59;99080.38;;;0.98;100.00
23574;BME280;11965;53.640;10.050;2024-01-15T00:24:26;99067.91;;;1.03;100.00
23574;BME280;11965;53.640;10.050;2024-01-15T00:26:53;99072.19;;;0.98;100.00
23574;BME280;11965;53.640;10.050;2024-01-15T00:29:22;99053.56;;;1.01;100.00
23574;BME280;11965;53.640;10.050;2024-01-15T00:31:49;99043.53;;;0.94;100.00
23574;BME280;11965;53.640;10.050;2024-01-15T00:34:16;99038.78;;;0.96;100.00
23574;BME280;11965;53.640;10.050;2024-01-15T00:36:43;99035.34;;;0.94;100.00
23574;BME280;11965;53.640;10.050;2024-01-15T00:39:10;99037.72;;;0.97;100.00
23574;BME280;11965;53.640;10.050;2024-01-15T00:41:37;99031.06;;;0.99;100.00
23574;BME280;11965;53.640;10.050;2024-01-15T00:44:04;99020.16;;;0.99;100.00
23574;BME280;11965;53.640;10.050;2024-01-15T00:46:32;99017.66;;;0.90;100.00
23574;BME280;11965;53.640;10.050;2024-01-15T00:48:59;99028.56;;;0.90;100.00
23574;BME280;11965;53.640;10.050;2024-01-15T00:51:26;99025.13;;;0.96;100.00
23574;BME280;11965;53.640;10.050;2024-01-15T00:53:53;99015.91;;;0.97;100.00
23574;BME280;11965;53.640;10.050;2024-01-15T00:56:20;99014.19;;;1.04;100.00
23574;BME280;11965;53.640;10.050;2024-01-15T00:58:47;99012.50;;;1.03;100.00
23574;BME280;11965;53.640;10.050;2024-01-15T01:01:13;99004.66;;;1.00;100.00
23574;BME280;11965;53.640;10.050;2024-01-15T01:03:42;99004.00;;;0.98;100.00
23574;BME280;11965;53.640;10.050;2024-01-15T01:06:09;98991.50;;;1.03;100.00
23574;BME280;11965;53.640;10.050;2024-01-15T01:08:36;98984.00;;;1.05;100.00
23574;BME280;11965;53.640;10.050;2024-01-15T01:11:03;98981.50;;;0.96;100.00
23574;BME280;11965;53.640;10.050;2024-01-15T01:13:30;98969.78;;;0.87;100.00
23574;BME280;11965;53.640;10.050;2024-01-15T01:15:56;98974.88;;;0.90;100.00
23574;BME280;11965;53.640;10.050;2024-01-15T01:18:24;98963.47;;;0.86;100.00
23574;BME280;11965;53.640;10.050;2024-01-15T01:20:52;98966.00;;;0.88;100.00
23574;BME280;11965;53.640;10.050;2024-01-15T01:23:19;98964.28;;;0.95;100.00
23574;BME280;11965;53.640;10.050;2024-01-15T01:25:46;98959.88;;;0.94;100.00
23574;BME280;11965;53.640;10.050;2024-01-15T01:28:13;98954.22;;;0.96;100.00
23574;BME280;11965;53.640;10.050;2024-01-15T01:30:40;98957.16;;;0.86;100.00
23574;BME280;11965;53.640;10.050;2024-01-15T01:33:07;98967.69;;;0.97;100.00
23574;BME280;11965;53.640;10.050;2024-01-15T01:35:34;98973.66;;;0.93;100.00
23574;BME280;11965;53.640;10.050;2024-01-15T01:38:03;98967.94;;;0.79;100.00
23574;BME280;11965;53.640;10.050;2024-01-15T01:40:30;98967.06;;;0.87;100.00
23574;BME280;11965;53.640;10.050;2024-01-15T01:42:57;98964.28;;;0.95;100.00
23574;BME280;11965;53.640;10.050;2024-01-15T01:45:23;98955.56;;;1.00;100.00
23574;BME280;11965;53.640;10.050;2024-01-15T01:47:50;98968.66;;;1.04;100.00
23574;BME280;11965;53.640;10.050;2024-01-15T01:50:17;98973.22;;;1.12;100.00
23574;BME280;11965;53.640;10.050;2024-01-15T01:52:45;98967.91;;;1.19;100.00
23574;BME280;11965;53.640;10.050;2024-01-15T01:55:14;98965.81;;;1.21;100.00
23574;BME280;11965;53.640;10.050;2024-01-15T01:57:42;98966.69;;;1.21;100.00
23574;BME280;11965;53.640;10.050;2024-01-15T02:00:11;98962.56;;;1.25;100.00
23574;BME280;11965;53.640;10.050;2024-01-15T02:02:38;98960.19;;;1.22;100.00
23574;BME280;11965;53.640;10.050;2024-01-15T02:05:06;98972.94;;;1.30;100.00
23574;BME280;11965;53.640;10.050;2024-01-15T02:07:34;98948.38;;;1.30;100.00
23574;BME280;11965;53.640;10.050;2024-01-15T02:10:01;98960.19;;;1.22;100.00
23574;BME280;11965;53.640;10.050;2024-01-15T02:12:30;98954.38;;;1.25;100.00
23574;BME280;11965;53.640;10.050;2024-01-15T02:14:57;98953.03;;;1.21;100.00
23574;BME280;11965;53.640;10.050;2024-01-15T02:17:25;98946.91;;;1.19;100.00
23574;BME280;11965;53.640;10.050;2024-01-15T02:19:51;98949.63;;;1.19;100.00
23574;BME280;11965;53.640;10.050;2024-01-15T02:22:18;98951.31;;;1.20;100.00
23574;BME280;11965;53.640;10.050;2024-01-15T02:24:47;98950.63;;;1.26;100.00
23574;BME280;11965;53.640;10.050;2024-01-15T02:27:14;98959.44;;;1.28;100.00
23574;BME280;11965;53.640;10.050;2024-01-15T02:29:41;98949.38;;;1.29;100.00
23574;BME280;11965;53.640;10.050;2024-01-15T02:32:09;98948.91;;;1.25;100.00
23574;BME280;11965;53.640;10.050;2024-01-15T02:34:35;98944.03;;;1.13;100.00
23574;BME280;11965;53.640;10.050;2024-01-15T02:37:03;98938.84;;;1.03;100.00
23574;BME280;11965;53.640;10.050;2024-01-15T02:39:29;98940.72;;;1.02;100.00
23574;BME280;11965;53.640;10.050;2024-01-15T02:41:58;98939.31;;;1.06;100.00
23574;BME280;11965;53.640;10.050;2024-01-15T02:44:25;98942.72;;;1.08;100.00
23574;BME280;11965;53.640;10.050;2024-01-15T02:46:52;98931.53;;;1.18;100.00
23574;BME280;11965;53.640;10.050;2024-01-15T02:49:19;98929.56;;;1.12;100.00
23574;BME280;11965;53.640;10.050;2024-01-15T02:51:46;98915.84;;;1.20;100.00
23574;BME280;11965;53.640;10.050;2024-01-15T02:54:13;98919.44;;;1.21;100.00
23574;BME280;11965;53.640;10.050;2024-01-15T02:56:40;98932.59;;;1.17;100.00
23574;BME280;11965;53.640;10.050;2024-01-15T02:59:08;98932.16;;;1.28;100.00
23574;BME280;11965;53.640;10.050;2024-01-15T03:01:35;98934.25;;;1.26;100.00
23574;BME280;11965;53.640;10.050;2024-01-15T03:04:03;98936.00;;;1.19;100.00
23574;BME280;11965;53.640;10.050;2024-01-15T03:06:29;98938.84;;;1.26;100.00
23574;BME280;11965;53.640;10.050;2024-01-15T03:08:56;98956.09;;;1.26;100.00
23574;BME280;11965;53.640;10.050;2024-01-15T03:11:23;98949.75;;;1.26;100.00
23574;BME280;11965;53.640;10.050;2024-01-15T03:13:50;98950.44;;;1.28;100.00
23574;BME280;11965;53.640;10.050;2024-01-15T03:16:19;98948.44;;;1.22;100.00
23574;BME280;11965;53.640;10.050;2024-01-15T03:18:46;98956.31;;;1.17;100.00
23574;BME280;11965;53.640;10.050;2024-01-15T03:21:13;98957.25;;;1.01;100.00
23574;BME280;11965;53.640;10.050;2024-01-15T03:23:40;98946.41;;;0.93;100.00
23574;BME280;11965;53.640;10.050;2024-01-15T03:26:07;98953.84;;;0.99;100.00
23574;BME280;11965;53.640;10.050;2024-01-15T03:28:34;98960.16;;;0.68;100.00
23574;BME280;11965;53.640;10.050;2024-01-15T03:31:01;98975.84;;;0.66;100.00
23574;BME280;11965;53.640;10.050;2024-01-15T03:33:29;98967.81;;;0.64;100.00
23574;BME280;11965;53.640;10.050;2024-01-15T03:35:56;98970.56;;;0.64;100.00
23574;BME280;11965;53.640;10.050;2024-01-15T03:38:23;98970.50;;;0.81;100.00
23574;BME280;11965;53.640;10.050;2024-01-15T03:40:51;98974.28;;;0.72;100.00
23574;BME280;11965;53.640;10.050;2024-01-15T03:43:18;98964.41;;;0.71;100.00
23574;BME280;11965;53.640;10.050;2024-01-15T03:45:45;98963.66;;;0.85;100.00
23574;BME280;11965;53.640;10.050;2024-01-15T03:48:12;98970.09;;;0.92;100.00
23574;BME280;11965;53.640;10.050;2024-01-15T03:50:40;98959.81;;;1.02;100.00
23574;BME280;11965;53.640;10.050;2024-01-15T03:53:07;98963.75;;;1.00;100.00
23574;BME280;11965;53.640;10.050;2024-01-15T03:55:34;98976.66;;;1.06;100.00
23574;BME280;11965;53.640;10.050;2024-01-15T03:58:01;98974.16;;;0.96;100.00
23574;BME280;11965;53.640;10.050;2024-01-15T04:00:28;98984.53;;;1.01;100.00
23574;BME280;11965;53.640;10.050;2024-01-15T04:02:54;98979.56;;;1.04;100.00
23574;BME280;11965;53.640;10.050;2024-01-15T04:05:21;98978.88;;;1.10;100.00
23574;BME280;11965;53.640;10.050;2024-01-15T04:07:50;98976.66;;;1.06;100.00
23574;BME280;11965;53.640;10.050;2024-01-15T04:10:17;98963.44;;;0.95;100.00
23574;BME280;11965;53.640;10.050;2024-01-15T04:12:43;98975.00;;;0.97;100.00
23574;BME280;11965;53.640;10.050;2024-01-15T04:15:11;98970.84;;;1.09;100.00
23574;BME280;11965;53.640;10.050;2024-01-15T04:17:38;98974.38;;;0.86;100.00
23574;BME280;11965;53.640;10.050;2024-01-15T04:20:06;98969.06;;;0.93;100.00
23574;BME280;11965;53.640;10.050;2024-01-15T04:22:34;98965.44;;;1.01;100.00
23574;BME280;11965;53.640;10.050;2024-01-15T04:25:03;98972.25;;;1.05;100.00
23574;BME280;11965;53.640;10.050;2024-01-15T04:27:30;98979.03;;;1.09;100.00
23574;BME280;11965;53.640;10.050;2024-01-15T04:29:57;98973.94;;;1.06;100.00
23574;BME280;11965;53.640;10.050;2024-01-15T04:32:24;98979.44;;;0.98;100.00
23574;BME280;11965;53.640;10.050;2024-01-15T04:34:51;98980.53;;;1.12;100.00
23574;BME280;11965;53.640;10.050;2024-01-15T04:37:18;98985.22;;;1.03;100.00
23574;BME280;11965;53.640;10.050;2024-01-15T04:39:45;98982.84;;;1.00;100.00
23574;BME280;11965;53.640;10.050;2024-01-15T04:42:13;98985.63;;;0.92;100.00
23574;BME280;11965;53.640;10.050;2024-01-15T04:44:40;98982.28;;;1.04;100.00
23574;BME280;11965;53.640;10.050;2024-01-15T04:47:07;98983.13;;;1.13;100.00
23574;BME280;11965;53.640;10.050;2024-01-15T04:49:34;98995.09;;;1.04;100.00
23574;BME280;11965;53.640;10.050;2024-01-15T04:52:00;99000.84;;;1.09;100.00
23574;BME280;11965;53.640;10.050;2024-01-15T04:54:27;98999.00;;;1.01;100.00
23574;BME280;11965;53.640;10.050;2024-01-15T04:56:54;98995.59;;;0.99;100.00
23574;BME280;11965;53.640;10.050;2024-01-15T04:59:22;98991.19;;;0.98;100.00
23574;BME280;11965;53.640;10.050;2024-01-15T05:01:49;98984.06;;;0.97;100.00
23574;BME280;11965;53.640;10.050;2024-01-15T05:04:16;98976.78;;;1.13;100.00
23574;BME280;11965;53.640;10.050;2024-01-15T05:06:43;98980.53;;;1.12;100.00
23574;BME280;11965;53.640;10.050;2024-01-15T05:09:10;98976.63;;;1.14;100.00
23574;BME280;11965;53.640;10.050;2024-01-15T05:11:38;98983.28;;;1.12;100.00
23574;BME280;11965;53.640;10.050;2024-01-15T05:14:05;98983.53;;;1.25;100.00
23574;BME280;11965;53.640;10.050;2024-01-15T05:16:34;98981.75;;;1.09;100.00
23574;BME280;11965;53.640;10.050;2024-01-15T05:19:01;98980.59;;;1.03;100.00
23574;BME280;11965;53.640;10.050;2024-01-15T05:21:28;98987.31;;;0.93;100.00
23574;BME280;11965;53.640;10.050;2024-01-15T05:23:55;98977.47;;;1.15;100.00
23574;BME280;11965;53.640;10.050;2024-01-15T05:26:21;98980.38;;;1.13;100.00
23574;BME280;11965;53.640;10.050;2024-01-15T05:28:48;98982.34;;;0.96;100.00
23574;BME280;11965;53.640;10.050;2024-01-15T05:31:15;98987.47;;;1.22;100.00
23574;BME280;11965;53.640;10.050;2024-01-15T05:33:44;98989.66;;;0.96;100.00
23574;BME280;11965;53.640;10.050;2024-01-15T05:36:11;98983.94;;;1.14;100.00
23574;BME280;11965;53.640;10.050;2024-01-15T05:38:38;98989.22;;;1.15;100.00
23574;BME280;11965;53.640;10.050;2024-01-15T05:41:05;98995.72;;;1.14;100.00
23574;BME280;11965;53.640;10.050;2024-01-15T05:43:33;98991.41;;;1.20;100.00
23574;BME280;11965;53.640;10.050;2024-01-15T05:45:59;98996.13;;;1.03;100.00
23574;BME280;11965;53.640;10.050;2024-01-15T05:48:26;98991.88;;;1.23;100.00
23574;BME280;11965;53.640;10.050;2024-01-15T05:50:55;98989.56;;;1.12;100.00
23574;BME280;11965;53.640;10.050;2024-01-15T05:53:22;98994.19;;;1.12;100.00
23574;BME280;11965;53.640;10.050;2024-01-15T05:55:48;98985.31;;;1.09;100.00
23574;BME280;11965;53.640;10.050;2024-01-15T05:58:15;98993.09;;;1.21;100.00
23574;BME280;11965;53.640;10.050;2024-01-15T06:00:42;98989.78;;;1.33;100.00
23574;BME280;11965;53.640;10.050;2024-01-15T06:03:09;98985.91;;;1.28;100.00
23574;BME280;11965;53.640;10.050;2024-01-15T06:05:36;98983.00;;;1.29;100.00
23574;BME280;11965;53.640;10.050;2024-01-15T06:08:04;98999.25;;;1.46;100.00
23574;BME280;11965;53.640;10.050;2024-01-15T06:10:31;99005.09;;;1.43;100.00
23574;BME280;11965;53.640;10.050;2024-01-15T06:12:58;99000.94;;;1.47;100.00
23574;BME280;11965;53.640;10.050;2024-01-15T06:15:25;98998.28;;;1.39;100.00
23574;BME280;11965;53.640;10.050;2024-01-15T06:17:52;99002.53;;;1.41;100.00
23574;BME280;11965;53.640;10.050;2024-01-15T06:20:19;99004.22;;;1.42;100.00
23574;BME280;11965;53.640;10.050;2024-01-15T06:22:46;99006.53;;;1.30;100.00
23574;BME280;11965;53.640;10.050;2024-01-15T06:25:15;99009.09;;;1.32;100.00
23574;BME280;11965;53.640;10.050;2024-01-15T06:27:41;99004.41;;;1.41;100.00
23574;BME280;11965;53.640;10.050;2024-01-15T06:30:09;98993.13;;;1.44;100.00
23574;BME280;11965;53.640;10.050;2024-01-15T06:32:37;98997.28;;;1.31;100.00
23574;BME280;11965;53.640;10.050;2024-01-15T06:35:04;99004.47;;;1.32;100.00
23574;BME280;11965;53.640;10.050;2024-01-15T06:37:31;99002.69;;;1.17;100.00
23574;BME280;11965;53.640;10.050;2024-01-15T06:39:58;98991.63;;;1.10;100.00
23574;BME280;11965;53.640;10.050;2024-01-15T06:42:26;98992.81;;;1.39;100.00
23574;BME280;11965;53.640;10.050;2024-01-15T06:44:53;98996.16;;;1.49;100.00
23574;BME280;11965;53.640;10.050;2024-01-15T06:47:20;98998.22;;;1.47;100.00
23574;BME280;11965;53.640;10.050;2024-01-15T06:49:47;98998.13;;;1.40;100.00
23574;BME280;11965;53.640;10.050;2024-01-15T06:52:16;98998.69;;;1.50;100.00
23574;BME280;11965;53.640;10.050;2024-01-15T06:54:43;98999.56;;;1.51;100.00
23574;BME280;11965;53.640;10.050;2024-01-15T06:57:10;98998.66;;;1.59;100.00
23574;BME280;11965;53.640;10.050;2024-01-15T06:59:38;99001.88;;;1.62;100.00
23574;BME280;11965;53.640;10.050;2024-01-15T07:02:06;99006.28;;;1.63;100.00
23574;BME280;11965;53.640;10.050;2024-01-15T07:04:33;99009.06;;;1.55;100.00
23574;BME280;11965;53.640;10.050;2024-01-15T07:07:00;99005.69;;;1.53;100.00
23574;BME280;11965;53.640;10.050;2024-01-15T07:09:27;99007.50;;;1.61;100.00
23574;BME280;11965;53.640;10.050;2024-01-15T07:11:53;99016.91;;;1.58;100.00
23574;BME280;11965;53.640;10.050;2024-01-15T07:14:22;99025.81;;;1.52;100.00
23574;BME280;11965;53.640;10.050;2024-01-15T07:16:50;99019.84;;;1.57;100.00
23574;BME280;11965;53.640;10.050;2024-01-15T07:19:17;99029.72;;;1.58;100.00
23574;BME280;11965;53.640;10.050;2024-01-15T07:21:44;99031.59;;;1.57;100.00
23574;BME280;11965;53.640;10.050;2024-01-15T07:24:11;99037.97;;;1.49;100.00
23574;BME280;11965;53.640;10.050;2024-01-15T07:26:38;99028.69;;;1.59;100.00
23574;BME280;11965;53.640;10.050;2024-01-15T07:29:05;99032.38;;;1.66;100.00
23574;BME280;11965;53.640;10.050;2024-01-15T07:31:32;99039.00;;;1.71;100.00
23574;BME280;11965;53.640;10.050;2024-01-15T07:34:01;99053.16;;;1.75;100.00
23574;BME280;11965;53.640;10.050;2024-01-15T07:36:28;99052.59;;;1.80;100.00
23574;BME280;11965;53.640;10.050;2024-01-15T07:38:55;99042.34;;;1.82;100.00
23574;BME280;11965;53.640;10.050;2024-01-15T07:41:21;99042.69;;;1.79;100.00
23574;BME280;11965;53.640;10.050;2024-01-15T07:43:49;99042.88;;;1.77;100.00
23574;BME280;11965;53.640;10.050;2024-01-15T07:46:15;99043.06;;;1.75;100.00
23574;BME280;11965;53.640;10.050;2024-01-15T07:48:42;99051.44;;;1.74;100.00
23574;BME280;11965;53.640;10.050;2024-01-15T07:51:11;99047.91;;;1.65;100.00
23574;BME280;11965;53.640;10.050;2024-01-15T07:53:38;99047.66;;;1.52;100.00
23574;BME280;11965;53.640;10.050;2024-01-15T07:56:05;99053.44;;;1.57;100.00
23574;BME280;11965;53.640;10.050;2024-01-15T07:58:32;99057.84;;;1.58;100.00
23574;BME280;11965;53.640;10.050;2024-01-15T08:00:59;99063.25;;;1.66;100.00
23574;BME280;11965;53.640;10.050;2024-01-15T08:03:26;99062.03;;;1.69;100.00
23574;BME280;11965;53.640;10.050;2024-01-15T08:05:53;99057.94;;;1.73;100.00
23574;BME280;11965;53.640;10.050;2024-01-15T08:08:24;99062.94;;;1.61;100.00
23574;BME280;11965;53.640;10.050;2024-01-15T08:10:52;99048.28;;;1.62;100.00
23574;BME280;11965;53.640;10.050;2024-01-15T08:13:18;99059.75;;;1.81;100.00
23574;BME280;11965;53.640;10.050;2024-01-15T08:15:45;99060.06;;;1.86;100.00
23574;BME280;11965;53.640;10.050;2024-01-15T08:18:12;99062.81;;;1.86;100.00
23574;BME280;11965;53.640;10.050;2024-01-15T08:20:39;99059.09;;;1.79;100.00
23574;BME280;11965;53.640;10.050;2024-01-15T08:23:06;99059.41;;;1.84;100.00
23574;BME280;11965;53.640;10.050;2024-01-15T08:25:35;99068.75;;;1.89;100.00
23574;BME280;11965;53.640;10.050;2024-01-15T08:28:03;99071.16;;;1.84;100.00
23574;BME280;11965;53.640;10.050;2024-01-15T08:30:30;99067.06;;;1.88;100.00
23574;BME280;11965;53.640;10.050;2024-01-15T08:32:57;99070.06;;;1.93;100.00
23574;BME280;11965;53.640;10.050;2024-01-15T08:35:24;99065.28;;;1.95;100.00
23574;BME280;11965;53.640;10.050;2024-01-15T08:37:52;99075.34;;;1.95;100.00
23574;BME280;11965;53.640;10.050;2024-01-15T08:40:19;99081.41;;;2.05;100.00
23574;BME280;11965;53.640;10.050;2024-01-15T08:42:47;99082.94;;;2.08;100.00
23574;BME280;11965;53.640;10.050;2024-01-15T08:45:15;99080.69;;;2.11;100.00
23574;BME280;11965;53.640;10.050;2024-01-15T08:47:42;99090.94;;;2.09;100.00
23574;BME280;11965;53.640;10.050;2024-01-15T08:50:09;99090.88;;;2.17;100.00
23574;BME280;11965;53.640;10.050;2024-01-15T08:52:36;99098.22;;;2.17;100.00
23574;BME280;11965;53.640;10.050;2024-01-15T08:55:04;99094.34;;;2.11;100.00
23574;BME280;11965;53.640;10.050;2024-01-15T08:57:32;99095.63;;;2.01;100.00
23574;BME280;11965;53.640;10.050;2024-01-15T09:00:01;99093.72;;;2.01;100.00
23574;BME280;11965;53.640;10.050;2024-01-15T09:02:29;99102.78;;;1.79;100.00
23574;BME280;11965;53.640;10.050;2024-01-15T09:04:56;99112.47;;;1.58;100.00
23574;BME280;11965;53.640;10.050;2024-01-15T09:07:23;99113.59;;;1.41;100.00
23574;BME280;11965;53.640;10.050;2024-01-15T09:09:50;99120.94;;;1.40;100.00
23574;BME280;11965;53.640;10.050;2024-01-15T09:12:17;99130.34;;;1.38;100.00
23574;BME280;11965;53.640;10.050;2024-01-15T09:14:46;99127.28;;;1.32;100.00
23574;BME280;11965;53.640;10.050;2024-01-15T09:17:14;99133.25;;;1.28;100.00
23574;BME280;11965;53.640;10.050;2024-01-15T09:19:41;99127.69;;;1.21;100.00
23574;BME280;11965;53.640;10.050;2024-01-15T09:22:08;99124.72;;;1.31;100.00
23574;BME280;11965;53.640;10.050;2024-01-15T09:24:35;99126.25;;;1.33;100.00
23574;BME280;11965;53.640;10.050;2024-01-15T09:27:02;99122.16;;;1.38;100.00
23574;BME280;11965;53.640;10.050;2024-01-15T09:29:29;99132.06;;;1.30;100.00
23574;BME280;11965;53.640;10.050;2024-01-15T09:31:57;99138.38;;;1.31;100.00
23574;BME280;11965;53.640;10.050;2024-01-15T09:34:25;99139.25;;;1.23;100.00
23574;BME280;11965;53.640;10.050;2024-01-15T09:36:52;99127.66;;;1.29;100.00
23574;BME280;11965;53.640;10.050;2024-01-15T09:39:19;99139.44;;;1.22;100.00
23574;BME280;11965;53.640;10.050;2024-01-15T09:41:47;99129.22;;;1.24;100.00
23574;BME280;11965;53.640;10.050;2024-01-15T09:44:16;99132.75;;;1.32;100.00
23574;BME280;11965;53.640;10.050;2024-01-15T09:46:44;99135.97;;;1.36;100.00
23574;BME280;11965;53.640;10.050;2024-01-15T09:49:11;99143.13;;;1.37;100.00
23574;BME280;11965;53.640;10.050;2024-01-15T09:51:41;99155.41;;;1.33;100.00
23574;BME280;11965;53.640;10.050;2024-01-15T09:54:09;99147.94;;;1.27;100.00
23574;BME280;11965;53.640;10.050;2024-01-15T09:56:39;99162.44;;;1.27;100.00
23574;BME280;11965;53.640;10.050;2024-01-15T09:59:06;99159.03;;;1.25;100.00
23574;BME280;11965;53.640;10.050;2024-01-15T10:01:36;99163.81;;;1.23;100.00
23574;BME280;11965;53.640;10.050;2024-01-15T10:04:04;99179.84;;;1.18;100.00
23574;BME280;11965;53.640;10.050;2024-01-15T10:06:32;99177.31;;;1.17;100.00
23574;BME280;11965;53.640;10.050;2024-01-15T10:09:02;99183.97;;;1.14;100.00
23574;BME280;11965;53.640;10.050;2024-01-15T10:11:30;99186.22;;;1.10;100.00
23574;BME280;11965;53.640;10.050;2024-01-15T10:13:57;99184.00;;;1.06;100.00
23574;BME280;11965;53.640;10.050;2024-01-15T10:16:25;99185.16;;;1.12;100.00
23574;BME280;11965;53.640;10.050;2024-01-15T10:18:52;99186.69;;;1.14;100.00
23574;BME280;11965;53.640;10.050;2024-01-15T10:21:20;99188.22;;;1.17;100.00
23574;BME280;11965;53.640;10.050;2024-01-15T10:23:47;99184.78;;;1.23;100.00
23574;BME280;11965;53.640;10.050;2024-01-15T10:26:15;99192.78;;;1.32;100.00
23574;BME280;11965;53.640;10.050;2024-01-15T10:28:42;99188.47;;;1.46;100.00
23574;BME280;11965;53.640;10.050;2024-01-15T10:31:09;99197.69;;;1.45;100.00
23574;BME280;11965;53.640;10.050;2024-01-15T10:33:37;99197.69;;;1.45;100.00
23574;BME280;11965;53.640;10.050;2024-01-15T10:36:09;99200.91;;;1.49;100.00
23574;BME280;11965;53.640;10.050;2024-01-15T10:38:36;99201.03;;;1.55;100.00
23574;BME280;11965;53.640;10.050;2024-01-15T10:41:03;99206.72;;;1.46;100.00
23574;BME280;11965;53.640;10.050;2024-01-15T10:43:32;99218.50;;;1.46;100.00
23574;BME280;11965;53.640;10.050;2024-01-15T10:45:59;99222.03;;;1.55;100.00
23574;BME280;11965;53.640;10.050;2024-01-15T10:48:26;99228.94;;;1.43;100.00
23574;BME280;11965;53.640;10.050;2024-01-15T10:50:54;99225.69;;;1.39;100.00
23574;BME280;11965;53.640;10.050;2024-01-15T10:53:21;99226.53;;;1.48;100.00
23574;BME280;11965;53.640;10.050;2024-01-15T10:55:50;99228.59;;;1.38;100.00
23574;BME280;11965;53.640;10.050;2024-01-15T10:58:18;99221.06;;;1.48;100.00
23574;BME280;11965;53.640;10.050;2024-01-15T11:00:49;99228.91;;;1.51;100.00
23574;BME280;11965;53.640;10.050;2024-01-15T11:03:16;99229.72;;;1.60;100.00
23574;BME280;11965;53.640;10.050;2024-01-15T11:05:45;99220.00;;;1.57;100.00
23574;BME280;11965;53.640;10.050;2024-01-15T11:08:13;99217.59;;;1.62;100.00
23574;BME280;11965;53.640;10.050;2024-01-15T11:10:45;99215.69;;;1.63;100.00
23574;BME280;11965;53.640;10.050;2024-01-15T11:13:15;99227.97;;;1.67;100.00
23574;BME280;11965;53.640;10.050;2024-01-15T11:15:57;99232.41;;;1.68;100.00
23574;BME280;11965;53.640;10.050;2024-01-15T11:18:27;99232.03;;;1.71;100.00
23574;BME280;11965;53.640;10.050;2024-01-15T11:21:19;99228.59;;;1.77;100.00
23574;BME280;11965;53.640;10.050;2024-01-15T11:23:48;99238.63;;;1.85;100.00
23574;BME280;11965;53.640;10.050;2024-01-15T11:26:31;99235.63;;;1.71;100.00
23574;BME280;11965;53.640;10.050;2024-01-15T11:29:00;99233.75;;;1.72;100.00
23574;BME280;11965;53.640;10.050;2024-01-15T11:31:56;99244.81;;;1.79;100.00
23574;BME280;11965;53.640;10.050;2024-01-15T11:37:56;99234.59;;;2.04;100.00
23574;BME280;11965;53.640;10.050;2024-01-15T11:40:39;99238.13;;;2.20;100.00
23574;BME280;11965;53.640;10.050;2024-01-15T11:43:08;99237.88;;;2.30;100.00
23574;BME280;11965;53.640;10.050;2024-01-15T11:45:36;99235.13;;;2.30;100.00
23574;BME280;11965;53.640;10.050;2024-01-15T11:48:12;99237.44;;;2.18;100.00
23574;BME280;11965;53.640;10.050;2024-01-15T11:50:42;99239.31;;;2.18;100.00
23574;BME280;11965;53.640;10.050;2024-01-15T11:53:27;99240.75;;;2.37;100.00
23574;BME280;11965;53.640;10.050;2024-01-15T11:56:02;99242.81;;;2.35;100.00
23574;BME280;11965;53.640;10.050;2024-01-15T11:58:30;99241.97;;;2.34;100.00
23574;BME280;11965;53.640;10.050;2024-01-15T12:00:57;99248.63;;;2.55;100.00
23574;BME280;11965;53.640;10.050;2024-01-15T12:03:26;99243.72;;;2.50;100.00
23574;BME280;11965;53.640;10.050;2024-01-15T12:05:53;99245.53;;;2.35;100.00
23574;BME280;11965;53.640;10.050;2024-01-15T12:08:24;99247.16;;;2.44;100.00
23574;BME280;11965;53.640;10.050;2024-01-15T12:10:53;99249.31;;;2.57;100.00
23574;BME280;11965;53.640;10.050;2024-01-15T12:13:20;99252.16;;;2.40;100.00
23574;BME280;11965;53.640;10.050;2024-01-15T12:15:48;99249.25;;;2.42;100.00
23574;BME280;11965;53.640;10.050;2024-01-15T12:18:17;99256.63;;;2.33;100.00
23574;BME280;11965;53.640;10.050;2024-01-15T12:20:47;99251.06;;;2.27;100.00
23574;BME280;11965;53.640;10.050;2024-01-15T12:23:18;99257.78;;;2.16;100.00
23574;BME280;11965;53.640;10.050;2024-01-15T12:25:47;99268.00;;;2.22;100.00
23574;BME280;11965;53.640;10.050;2024-01-15T12:28:14;99268.91;;;2.06;100.00
23574;BME280;11965;53.640;10.050;2024-01-15T12:30:41;99269.97;;;2.05;100.00
23574;BME280;11965;53.640;10.050;2024-01-15T12:33:10;99279.59;;;1.85;100.00
23574;BME280;11965;53.640;10.050;2024-01-15T12:35:37;99280.84;;;1.74;100.00
23574;BME280;11965;53.640;10.050;2024-01-15T12:38:05;99288.16;;;1.82;100.00
23574;BME280;11965;53.640;10.050;2024-01-15T12:40:33;99294.00;;;1.70;100.00
23574;BME280;11965;53.640;10.050;2024-01-15T12:43:01;99287.03;;;1.68;100.00
23574;BME280;11965;53.640;10.050;2024-01-15T12:45:28;99297.09;;;1.67;100.00
23574;BME280;11965;53.640;10.050;2024-01-15T12:47:56;99300.16;;;1.72;100.00
23574;BME280;11965;53.640;10.050;2024-01-15T12:50:24;99303.22;;;1.77;100.00
23574;BME280;11965;53.640;10.050;2024-01-15T12:52:52;99307.25;;;1.90;100.00
23574;BME280;11965;53.640;10.050;2024-01-15T12:55:20;99304.53;;;1.90;99.31
23574;BME280;11965;53.640;10.050;2024-01-15T12:57:47;99306.50;;;2.04;99.42